Time;durP1;ratioP1;P1;durP2;ratioP2;P2;SDS_P1;SDS_P2;PMS_P1;PMS_P2;Temp;Humidity;BMP_temperature;BMP_pressure;BME280_temperature;BME280_humidity;BME280_pressure;Samples;Min_cycle;Max_cycle;Signal;HPM_P1;HPM_P2
2023/10/18 00:00:46;;;;;;;108.13;38.35;;;;;;;;;;6248677;28;20045;-61
2023/10/18 00:04:07;;;;;;;86.32;37.30;;;;;;;;;;6249030;28;20045;-61
2023/10/18 00:07:07;;;;;;;85.47;36.75;;;;;;;;;;6248670;28;20038;-60
2023/10/18 00:10:08;;;;;;;81.00;36.67;;;;;;;;;;6251624;28;20046;-60
2023/10/18 00:13:11;;;;;;;83.15;34.08;;;;;;;;;;6250450;28;20451;-60
2023/10/18 00:16:13;;;;;;;90.88;35.60;;;;;;;;;;6249630;28;20492;-58
2023/10/18 00:19:14;;;;;;;85.30;36.50;;;;;;;;;;6250527;28;20178;-61
2023/10/18 00:22:14;;;;;;;97.25;39.47;;;;;;;;;;6250171;28;20694;-60
2023/10/18 00:25:16;;;;;;;87.43;37.50;;;;;;;;;;6261021;28;20052;-60
2023/10/18 00:28:16;;;;;;;94.05;39.60;;;;;;;;;;6250934;28;20048;-61
2023/10/18 00:31:20;;;;;;;95.28;40.03;;;;;;;;;;6252010;28;20136;-60
2023/10/18 00:34:20;;;;;;;91.07;38.20;;;;;;;;;;6251612;28;20125;-62
2023/10/18 00:37:25;;;;;;;87.13;37.80;;;;;;;;;;6249770;28;20515;-60
2023/10/18 00:43:29;;;;;;;91.05;39.70;;;;;;;;;;6256285;28;20392;-61
2023/10/18 00:46:30;;;;;;;94.10;38.58;;;;;;;;;;6251779;28;20048;-62
2023/10/18 00:49:32;;;;;;;92.13;39.83;;;;;;;;;;6257275;28;20047;-61
2023/10/18 00:52:35;;;;;;;97.60;42.00;;;;;;;;;;6253140;28;20046;-60
2023/10/18 00:55:36;;;;;;;;;;;;;;;;;;6255504;28;20045;-59
2023/10/18 00:58:39;;;;;;;97.97;38.95;;;;;;;;;;6245102;28;19921;-61
2023/10/18 01:01:43;;;;;;;97.43;41.80;;;;;;;;;;6245233;28;20086;-61
2023/10/18 01:04:46;;;;;;;97.75;40.83;;;;;;;;;;6245777;28;20076;-61
2023/10/18 01:07:48;;;;;;;107.13;44.45;;;;;;;;;;6244813;28;20049;-61
2023/10/18 01:10:50;;;;;;;105.13;42.63;;;;;;;;;;6244107;28;20135;-60
2023/10/18 01:13:55;;;;;;;105.95;44.15;;;;;;;;;;6246361;28;20057;-62
2023/10/18 01:16:56;;;;;;;101.53;45.03;;;;;;;;;;6245323;28;20053;-62
2023/10/18 01:19:58;;;;;;;100.00;43.93;;;;;;;;;;6244730;28;20044;-60
2023/10/18 01:22:59;;;;;;;;;;;;;;;;;;6244960;28;20458;-61
2023/10/18 01:26:00;;;;;;;112.35;47.05;;;;;;;;;;6245812;28;19921;-59
2023/10/18 01:29:04;;;;;;;119.70;47.90;;;;;;;;;;6245226;28;20053;-61
2023/10/18 01:32:04;;;;;;;111.65;45.97;;;;;;;;;;6245006;28;20050;-59
2023/10/18 01:35:05;;;;;;;105.85;43.85;;;;;;;;;;6245590;28;20068;-61
2023/10/18 01:38:13;;;;;;;117.43;47.67;;;;;;;;;;6243482;28;20045;-60
2023/10/18 01:41:25;;;;;;;112.28;48.08;;;;;;;;;;6242750;28;20424;-61
2023/10/18 01:44:33;;;;;;;121.75;50.22;;;;;;;;;;6254650;28;20046;-61
2023/10/18 01:47:35;;;;;;;111.75;48.47;;;;;;;;;;6248739;28;20061;-59
2023/10/18 01:50:38;;;;;;;;;;;;;;;;;;6256489;28;20053;-61
2023/10/18 01:53:41;;;;;;;167.30;53.65;;;;;;;;;;6243995;28;19937;-59
2023/10/18 01:56:46;;;;;;;207.93;59.97;;;;;;;;;;6243515;28;20456;-60
2023/10/18 01:59:50;;;;;;;227.80;63.83;;;;;;;;;;6244791;28;20049;-60
2023/10/18 02:02:50;;;;;;;182.63;59.25;;;;;;;;;;6244064;28;20049;-61
2023/10/18 02:05:51;;;;;;;174.25;58.78;;;;;;;;;;6241736;28;20060;-58
2023/10/18 02:08:52;;;;;;;208.98;61.13;;;;;;;;;;6242002;28;20045;-60
2023/10/18 02:11:52;;;;;;;313.65;67.57;;;;;;;;;;6242020;28;20049;-60
2023/10/18 02:14:55;;;;;;;265.38;65.32;;;;;;;;;;6250456;28;20067;-58
2023/10/18 02:17:57;;;;;;;170.43;62.03;;;;;;;;;;6247961;28;20561;-62
2023/10/18 02:20:57;;;;;;;194.57;62.35;;;;;;;;;;6241217;28;20045;-57
2023/10/18 02:23:58;;;;;;;189.38;62.58;;;;;;;;;;6241069;28;20107;-61
2023/10/18 02:27:00;;;;;;;222.05;61.22;;;;;;;;;;6244005;28;20042;-61
2023/10/18 02:30:01;;;;;;;231.27;63.10;;;;;;;;;;6243026;28;20042;-59
2023/10/18 02:33:04;;;;;;;199.68;61.42;;;;;;;;;;6243194;28;20543;-60
2023/10/18 02:36:10;;;;;;;229.90;62.35;;;;;;;;;;6241179;28;20045;-58
2023/10/18 02:39:11;;;;;;;211.23;59.75;;;;;;;;;;6242652;28;20067;-62
2023/10/18 02:42:13;;;;;;;223.55;60.65;;;;;;;;;;6243043;28;20555;-59
2023/10/18 02:45:17;;;;;;;;;;;;;;;;;;6263397;28;20045;-60
2023/10/18 02:48:22;;;;;;;262.88;59.28;;;;;;;;;;6247567;28;19925;-59
2023/10/18 02:51:24;;;;;;;240.77;62.95;;;;;;;;;;6242374;28;20100;-56
2023/10/18 02:54:25;;;;;;;255.77;64.38;;;;;;;;;;6243410;28;20057;-56
2023/10/18 02:57:25;;;;;;;233.20;62.92;;;;;;;;;;6244313;28;20399;-61
2023/10/18 03:00:27;;;;;;;343.42;64.15;;;;;;;;;;6240014;28;20046;-61
2023/10/18 03:03:30;;;;;;;327.90;67.38;;;;;;;;;;6257174;28;20048;-58
2023/10/18 03:06:33;;;;;;;407.55;68.60;;;;;;;;;;6243827;28;20503;-59
2023/10/18 03:12:36;;;;;;;278.15;64.78;;;;;;;;;;6241196;28;20476;-58
2023/10/18 03:15:49;;;;;;;370.13;68.82;;;;;;;;;;6242142;28;20416;-60
2023/10/18 03:18:50;;;;;;;303.38;64.28;;;;;;;;;;6243357;28;20408;-58
2023/10/18 03:21:53;;;;;;;309.38;64.78;;;;;;;;;;6242093;28;20049;-60
2023/10/18 03:24:54;;;;;;;236.02;65.15;;;;;;;;;;6241927;28;20393;-60
2023/10/18 03:27:58;;;;;;;239.80;65.57;;;;;;;;;;6242499;28;20318;-58
2023/10/18 03:31:00;;;;;;;264.70;65.97;;;;;;;;;;6241180;28;20054;-58
2023/10/18 03:34:02;;;;;;;211.10;65.43;;;;;;;;;;6244167;28;20041;-61
2023/10/18 03:37:04;;;;;;;232.75;68.75;;;;;;;;;;6240127;28;20518;-59
2023/10/18 03:40:27;;;;;;;;;;;;;;;;;;6242646;28;20045;-60
2023/10/18 03:43:26;;;;;;;203.23;60.92;;;;;;;;;;6247965;28;19921;-58
2023/10/18 03:46:29;;;;;;;270.92;67.55;;;;;;;;;;6244583;28;20091;-61
2023/10/18 03:49:33;;;;;;;233.45;70.07;;;;;;;;;;6240086;28;20492;-61
2023/10/18 03:52:33;;;;;;;212.95;67.45;;;;;;;;;;6240438;28;20055;-54
2023/10/18 03:55:39;;;;;;;214.75;68.32;;;;;;;;;;6243186;28;20401;-58
2023/10/18 03:58:48;;;;;;;195.93;66.35;;;;;;;;;;6261712;28;20492;-60
2023/10/18 04:02:07;;;;;;;227.18;66.93;;;;;;;;;;6257455;28;20098;-59
2023/10/18 04:05:21;;;;;;;205.57;65.65;;;;;;;;;;6264972;28;20415;-59
2023/10/18 04:08:22;;;;;;;198.98;64.72;;;;;;;;;;6244447;28;20050;-61
2023/10/18 04:11:26;;;;;;;248.88;63.85;;;;;;;;;;6251847;28;20447;-61
2023/10/18 04:14:26;;;;;;;237.48;64.18;;;;;;;;;;6250865;28;20044;-60
2023/10/18 04:17:37;;;;;;;257.15;64.10;;;;;;;;;;6245064;28;20495;-60
2023/10/18 04:20:42;;;;;;;270.70;65.55;;;;;;;;;;6244403;28;20053;-57
2023/10/18 04:23:46;;;;;;;226.95;64.38;;;;;;;;;;6252780;28;20053;-54
2023/10/18 04:26:52;;;;;;;271.15;62.97;;;;;;;;;;6255004;28;20494;-59
2023/10/18 04:29:56;;;;;;;232.55;61.38;;;;;;;;;;6265383;28;20052;-59
2023/10/18 04:33:00;;;;;;;229.15;58.40;;;;;;;;;;6246477;28;20049;-60
2023/10/18 04:36:09;;;;;;;244.85;60.50;;;;;;;;;;6246956;28;20052;-57
2023/10/18 04:39:11;;;;;;;179.00;58.00;;;;;;;;;;6245484;28;20095;-61
2023/10/18 04:42:17;;;;;;;236.43;62.25;;;;;;;;;;6264700;28;21234;-60
2023/10/18 04:45:18;;;;;;;204.50;52.45;;;;;;;;;;6261832;28;20499;-56
2023/10/18 04:48:23;;;;;;;233.20;59.85;;;;;;;;;;6273194;28;20090;-61
2023/10/18 04:51:27;;;;;;;192.88;58.33;;;;;;;;;;6256906;28;20047;-57
2023/10/18 04:54:36;;;;;;;213.93;60.38;;;;;;;;;;6267888;28;20053;-50
2023/10/18 04:57:38;;;;;;;286.40;67.60;;;;;;;;;;6268696;28;20047;-60
2023/10/18 05:00:56;;;;;;;271.35;62.88;;;;;;;;;;6252063;28;20048;-57
2023/10/18 05:03:59;;;;;;;254.65;60.80;;;;;;;;;;6246892;28;20132;-57
2023/10/18 05:07:04;;;;;;;253.80;61.97;;;;;;;;;;6246932;28;20053;-60
2023/10/18 05:10:14;;;;;;;235.82;60.50;;;;;;;;;;6242184;28;20046;-61
2023/10/18 05:13:32;;;;;;;208.40;61.83;;;;;;;;;;6244282;28;20474;-57
2023/10/18 05:16:32;;;;;;;217.98;58.08;;;;;;;;;;6243073;28;20404;-59
2023/10/18 05:19:37;;;;;;;169.60;55.00;;;;;;;;;;6245548;28;20049;-61
2023/10/18 05:22:41;;;;;;;146.95;52.67;;;;;;;;;;6242789;28;20151;-57
2023/10/18 05:25:45;;;;;;;187.00;52.30;;;;;;;;;;6243820;28;20060;-60
2023/10/18 05:29:01;;;;;;;158.77;54.00;;;;;;;;;;6249975;28;20041;-61
2023/10/18 05:32:36;;;;;;;171.68;52.20;;;;;;;;;;6244894;28;20065;-60
2023/10/18 05:35:35;;;;;;;198.13;54.42;;;;;;;;;;6242556;28;20093;-59
2023/10/18 05:41:45;;;;;;;190.70;56.50;;;;;;;;;;6243114;28;20055;-59
2023/10/18 05:44:47;;;;;;;191.77;54.57;;;;;;;;;;6243622;28;20195;-61
2023/10/18 05:47:54;;;;;;;159.70;55.47;;;;;;;;;;6242237;28;20693;-61
2023/10/18 05:51:04;;;;;;;161.05;55.47;;;;;;;;;;6242558;28;20473;-61
2023/10/18 05:54:08;;;;;;;183.70;55.47;;;;;;;;;;6243906;28;20080;-58
2023/10/18 05:57:11;;;;;;;173.85;56.17;;;;;;;;;;6243868;28;20114;-60
2023/10/18 06:00:18;;;;;;;189.43;62.53;;;;;;;;;;6244187;28;20053;-59
2023/10/18 06:03:20;;;;;;;227.95;73.70;;;;;;;;;;6244370;28;20048;-57
2023/10/18 06:06:21;;;;;;;219.18;66.20;;;;;;;;;;6244105;28;20121;-60
2023/10/18 06:09:27;;;;;;;215.68;76.47;;;;;;;;;;6243463;28;20564;-56
2023/10/18 06:12:30;;;;;;;273.90;71.22;;;;;;;;;;6242440;28;20048;-62
2023/10/18 06:15:44;;;;;;;205.07;73.05;;;;;;;;;;6241751;28;20057;-61
2023/10/18 06:18:48;;;;;;;221.63;75.95;;;;;;;;;;6242880;28;20409;-57
2023/10/18 06:21:57;;;;;;;230.00;72.18;;;;;;;;;;6240424;28;20042;-57
2023/10/18 06:25:00;;;;;;;225.05;70.20;;;;;;;;;;6242651;28;20052;-60
2023/10/18 06:28:06;;;;;;;220.73;72.80;;;;;;;;;;6243134;28;20132;-61
2023/10/18 06:31:08;;;;;;;197.15;67.60;;;;;;;;;;6239637;28;20079;-57
2023/10/18 06:34:17;;;;;;;190.10;61.70;;;;;;;;;;6241848;28;20046;-54
2023/10/18 06:37:20;;;;;;;165.30;61.90;;;;;;;;;;6242833;28;20136;-60
2023/10/18 06:40:43;;;;;;;185.05;61.63;;;;;;;;;;6241897;28;20081;-59
2023/10/18 06:43:44;;;;;;;184.40;63.10;;;;;;;;;;6240548;28;20110;-60
2023/10/18 06:46:48;;;;;;;177.57;60.10;;;;;;;;;;6240530;28;20057;-59
2023/10/18 06:49:51;;;;;;;176.63;56.47;;;;;;;;;;6242681;28;20072;-55
2023/10/18 06:52:55;;;;;;;154.05;56.60;;;;;;;;;;6241854;28;20454;-56
2023/10/18 06:59:04;;;;;;;142.35;55.15;;;;;;;;;;6244368;28;20045;-61
2023/10/18 07:02:05;;;;;;;151.65;55.67;;;;;;;;;;6241720;28;20049;-60
2023/10/18 07:05:08;;;;;;;168.95;60.78;;;;;;;;;;6242678;28;20144;-58
2023/10/18 07:08:18;;;;;;;167.80;63.05;;;;;;;;;;6242278;28;20487;-57
2023/10/18 07:11:19;;;;;;;156.48;57.10;;;;;;;;;;6241151;28;20552;-58
2023/10/18 07:14:20;;;;;;;148.30;58.20;;;;;;;;;;6238886;28;20060;-57
2023/10/18 07:17:24;;;;;;;149.50;54.72;;;;;;;;;;6242797;28;20131;-58
2023/10/18 07:20:25;;;;;;;161.52;56.03;;;;;;;;;;6241044;28;20100;-62
2023/10/18 07:23:26;;;;;;;156.70;57.90;;;;;;;;;;6248347;28;20052;-60
2023/10/18 07:26:29;;;;;;;135.05;52.55;;;;;;;;;;6241588;28;20049;-57
2023/10/18 07:29:31;;;;;;;;;;;;;;;;;;6243652;28;20045;-59
2023/10/18 07:32:32;;;;;;;148.27;55.97;;;;;;;;;;6242143;28;19925;-61
2023/10/18 07:35:34;;;;;;;140.23;53.70;;;;;;;;;;6241681;28;20099;-61
2023/10/18 07:38:47;;;;;;;140.68;53.50;;;;;;;;;;6244164;28;20123;-56
2023/10/18 07:41:47;;;;;;;130.88;52.03;;;;;;;;;;6241291;28;20049;-61
2023/10/18 07:44:53;;;;;;;131.23;49.08;;;;;;;;;;6240185;28;20119;-61
2023/10/18 07:47:54;;;;;;;140.27;52.78;;;;;;;;;;6246853;28;20385;-62
2023/10/18 07:50:55;;;;;;;145.68;55.72;;;;;;;;;;6246903;28;20053;-60
2023/10/18 07:53:56;;;;;;;145.90;57.95;;;;;;;;;;6245031;28;20540;-61
2023/10/18 07:56:56;;;;;;;135.60;54.72;;;;;;;;;;6247107;28;20058;-61
2023/10/18 08:03:17;;;;;;;125.40;49.60;;;;;;;;;;6247355;28;20056;-60
2023/10/18 08:06:26;;;;;;;132.40;51.92;;;;;;;;;;6245532;28;20057;-59
2023/10/18 08:09:30;;;;;;;113.95;46.28;;;;;;;;;;6251239;28;20121;-58
2023/10/18 08:12:33;;;;;;;124.30;48.30;;;;;;;;;;6246531;28;20395;-58
2023/10/18 08:15:36;;;;;;;122.30;45.42;;;;;;;;;;6245101;28;20456;-61
2023/10/18 08:18:43;;;;;;;121.72;47.00;;;;;;;;;;6247255;28;20045;-57
2023/10/18 08:21:57;;;;;;;112.75;46.00;;;;;;;;;;6245649;28;20054;-61
2023/10/18 08:25:00;;;;;;;124.93;46.38;;;;;;;;;;6246639;28;20045;-62
2023/10/18 08:28:02;;;;;;;132.38;47.28;;;;;;;;;;6245378;28;20041;-62
2023/10/18 08:31:34;;;;;;;136.73;50.20;;;;;;;;;;6250117;28;20136;-60
2023/10/18 08:34:35;;;;;;;124.80;49.10;;;;;;;;;;6246484;28;20053;-59
2023/10/18 08:37:36;;;;;;;125.88;48.47;;;;;;;;;;6244627;28;20045;-58
2023/10/18 08:40:38;;;;;;;118.55;45.38;;;;;;;;;;6244377;28;20072;-59
2023/10/18 08:43:50;;;;;;;124.65;48.42;;;;;;;;;;6244809;28;20064;-61
2023/10/18 08:47:03;;;;;;;128.07;46.80;;;;;;;;;;6242148;28;20044;-61
2023/10/18 08:50:08;;;;;;;129.32;49.33;;;;;;;;;;6243549;28;20053;-58
2023/10/18 08:53:10;;;;;;;130.27;47.22;;;;;;;;;;6250910;28;20045;-57
2023/10/18 08:56:11;;;;;;;128.20;49.47;;;;;;;;;;6244690;28;20049;-58
2023/10/18 08:59:18;;;;;;;118.88;46.20;;;;;;;;;;6244794;28;20046;-60
2023/10/18 09:02:22;;;;;;;123.10;46.30;;;;;;;;;;6244535;28;20529;-58
2023/10/18 09:05:24;;;;;;;120.38;44.03;;;;;;;;;;6254549;28;20173;-61
2023/10/18 09:08:26;;;;;;;115.50;47.25;;;;;;;;;;6252216;28;20390;-61
2023/10/18 09:11:31;;;;;;;98.27;39.87;;;;;;;;;;6245102;28;20049;-62
2023/10/18 09:14:33;;;;;;;109.18;41.65;;;;;;;;;;6246261;28;20491;-61
2023/10/18 09:17:34;;;;;;;94.97;34.50;;;;;;;;;;6245292;28;20061;-59
2023/10/18 09:20:37;;;;;;;104.30;38.78;;;;;;;;;;6245066;28;20481;-62
2023/10/18 09:23:40;;;;;;;86.78;31.83;;;;;;;;;;6244422;28;20064;-59
2023/10/18 09:26:43;;;;;;;78.28;27.98;;;;;;;;;;6246995;28;20504;-61
2023/10/18 09:29:44;;;;;;;66.75;26.45;;;;;;;;;;6257543;28;20051;-62
2023/10/18 09:32:49;;;;;;;77.38;27.98;;;;;;;;;;6246470;28;20045;-61
2023/10/18 09:35:51;;;;;;;85.05;29.38;;;;;;;;;;6247196;28;20037;-61
2023/10/18 09:38:53;;;;;;;76.65;28.10;;;;;;;;;;6254852;28;20045;-54
2023/10/18 09:41:53;;;;;;;;;;;;;;;;;;6253686;28;20064;-60
2023/10/18 09:44:54;;;;;;;61.55;21.95;;;;;;;;;;6254689;28;19978;-60
2023/10/18 09:47:58;;;;;;;73.53;23.50;;;;;;;;;;6255275;28;20053;-59
2023/10/18 09:51:08;;;;;;;63.47;23.73;;;;;;;;;;6251678;28;20407;-56
2023/10/18 09:54:12;;;;;;;58.22;21.05;;;;;;;;;;6251856;28;20041;-61
2023/10/18 09:57:19;;;;;;;51.35;17.23;;;;;;;;;;6255447;28;20055;-64
2023/10/18 10:00:23;;;;;;;49.70;20.50;;;;;;;;;;6254272;28;20052;-61
2023/10/18 10:03:25;;;;;;;44.38;17.60;;;;;;;;;;6253465;28;20380;-61
2023/10/18 10:06:27;;;;;;;46.55;15.98;;;;;;;;;;6252873;28;20183;-59
2023/10/18 10:09:33;;;;;;;49.60;17.23;;;;;;;;;;6253393;28;20135;-61
2023/10/18 10:12:35;;;;;;;46.10;18.25;;;;;;;;;;6255456;28;20045;-57
2023/10/18 10:15:37;;;;;;;47.03;18.08;;;;;;;;;;6251651;28;20466;-59
2023/10/18 10:18:42;;;;;;;50.65;18.20;;;;;;;;;;6257623;28;20058;-61
2023/10/18 10:21:43;;;;;;;54.42;19.77;;;;;;;;;;6254967;28;20102;-59
2023/10/18 10:24:51;;;;;;;60.05;20.65;;;;;;;;;;6253143;28;20505;-61
2023/10/18 10:27:59;;;;;;;56.95;21.40;;;;;;;;;;6254750;28;20044;-61
2023/10/18 10:31:00;;;;;;;62.22;22.15;;;;;;;;;;6251959;28;20505;-59
2023/10/18 10:34:06;;;;;;;51.45;18.02;;;;;;;;;;6250564;28;20123;-61
2023/10/18 10:37:15;;;;;;;47.47;16.73;;;;;;;;;;6254123;28;20051;-56
2023/10/18 10:44:06;;;;;;;54.42;19.20;;;;;;;;;;6253232;28;20107;-61
2023/10/18 10:47:30;;;;;;;53.72;19.50;;;;;;;;;;6253241;28;20051;-59
2023/10/18 10:50:45;;;;;;;47.13;19.08;;;;;;;;;;6252605;28;20498;-61
2023/10/18 10:53:49;;;;;;;45.63;16.60;;;;;;;;;;6251522;28;20075;-59
2023/10/18 10:56:53;;;;;;;42.50;16.60;;;;;;;;;;6253956;28;20052;-60
2023/10/18 10:59:56;;;;;;;39.50;16.13;;;;;;;;;;6253840;28;20467;-62
2023/10/18 11:03:06;;;;;;;41.90;15.55;;;;;;;;;;6252827;28;20055;-58
2023/10/18 11:06:10;;;;;;;41.17;15.80;;;;;;;;;;6252689;28;20053;-61
2023/10/18 11:09:17;;;;;;;42.47;16.50;;;;;;;;;;6249378;28;20569;-62
2023/10/18 11:12:18;;;;;;;36.47;14.20;;;;;;;;;;6251919;28;20126;-61
2023/10/18 11:15:19;;;;;;;34.58;13.40;;;;;;;;;;6249954;28;20037;-56
2023/10/18 11:18:20;;;;;;;33.60;13.68;;;;;;;;;;6252245;28;20037;-59
2023/10/18 11:21:29;;;;;;;34.92;14.07;;;;;;;;;;6252309;28;20419;-62
2023/10/18 11:24:30;;;;;;;37.28;13.10;;;;;;;;;;6248877;28;21008;-58
2023/10/18 11:27:33;;;;;;;37.22;13.00;;;;;;;;;;6253544;28;20041;-59
2023/10/18 11:30:34;;;;;;;33.63;12.63;;;;;;;;;;6251206;28;20056;-62
2023/10/18 11:37:13;;;;;;;28.90;11.50;;;;;;;;;;6216827;28;20057;-58
2023/10/18 11:40:29;;;;;;;29.98;10.93;;;;;;;;;;6254050;28;20139;-58
2023/10/18 11:43:39;;;;;;;34.47;10.90;;;;;;;;;;6254368;28;20056;-52
2023/10/18 11:46:46;;;;;;;24.15;9.95;;;;;;;;;;6248530;28;20565;-60
2023/10/18 11:49:54;;;;;;;31.83;10.85;;;;;;;;;;6253114;28;20051;-57
2023/10/18 11:52:54;;;;;;;30.23;10.20;;;;;;;;;;6252793;28;20091;-61
2023/10/18 11:55:56;;;;;;;27.08;10.00;;;;;;;;;;6249417;28;20057;-61
2023/10/18 11:59:00;;;;;;;29.35;11.90;;;;;;;;;;6251455;28;20098;-58
2023/10/18 12:02:06;;;;;;;24.13;10.32;;;;;;;;;;6253010;28;21074;-61
2023/10/18 12:05:07;;;;;;;28.08;11.13;;;;;;;;;;6250494;28;20482;-56
2023/10/18 12:08:12;;;;;;;27.75;10.60;;;;;;;;;;6251111;28;20052;-62
2023/10/18 12:11:14;;;;;;;25.92;9.85;;;;;;;;;;6252252;28;20073;-61
2023/10/18 12:14:15;;;;;;;;;;;;;;;;;;6250984;28;20114;-59
2023/10/18 12:17:16;;;;;;;20.92;9.13;;;;;;;;;;6253228;28;19925;-60
2023/10/18 12:20:22;;;;;;;27.88;10.18;;;;;;;;;;6249893;28;20446;-57
2023/10/18 12:23:26;;;;;;;27.42;10.10;;;;;;;;;;6254986;28;20125;-61
2023/10/18 12:26:27;;;;;;;23.77;9.35;;;;;;;;;;6249300;28;20045;-60
2023/10/18 12:29:27;;;;;;;21.30;9.68;;;;;;;;;;6251081;28;20137;-56
2023/10/18 12:32:30;;;;;;;24.02;9.43;;;;;;;;;;6255426;28;20049;-60
2023/10/18 12:35:34;;;;;;;20.58;9.85;;;;;;;;;;6257327;28;20543;-57
2023/10/18 12:38:37;;;;;;;20.02;9.13;;;;;;;;;;6255094;28;20359;-62
2023/10/18 12:41:40;;;;;;;26.05;9.63;;;;;;;;;;6257986;28;20203;-62
2023/10/18 12:44:41;;;;;;;23.00;9.77;;;;;;;;;;6253572;28;20084;-54
2023/10/18 12:47:42;;;;;;;25.58;10.35;;;;;;;;;;6257734;28;20053;-56
2023/10/18 12:50:45;;;;;;;24.63;10.23;;;;;;;;;;6259276;28;20055;-55
2023/10/18 12:53:47;;;;;;;22.67;9.70;;;;;;;;;;6254714;28;20516;-55
2023/10/18 13:00:13;;;;;;;20.88;8.95;;;;;;;;;;6257004;28;20134;-52
2023/10/18 13:06:15;;;;;;;27.45;11.05;;;;;;;;;;6253902;28;20069;-55
2023/10/18 13:09:19;;;;;;;19.88;9.23;;;;;;;;;;6255703;28;20059;-54
2023/10/18 13:12:23;;;;;;;25.67;10.43;;;;;;;;;;6257711;28;20049;-54
2023/10/18 13:15:25;;;;;;;20.25;9.00;;;;;;;;;;6254807;28;20090;-56
2023/10/18 13:18:26;;;;;;;23.88;10.65;;;;;;;;;;6257449;28;20049;-62
2023/10/18 13:21:27;;;;;;;20.48;9.32;;;;;;;;;;6254458;28;20598;-57
2023/10/18 13:24:31;;;;;;;22.50;8.63;;;;;;;;;;6253923;28;20061;-59
2023/10/18 13:27:36;;;;;;;20.50;8.68;;;;;;;;;;6259307;28;20055;-60
2023/10/18 13:30:43;;;;;;;21.75;8.40;;;;;;;;;;6255154;28;20049;-60
2023/10/18 13:33:44;;;;;;;22.80;8.90;;;;;;;;;;6256122;28;20119;-59
2023/10/18 13:36:49;;;;;;;25.23;10.30;;;;;;;;;;6242593;28;20049;-59
2023/10/18 13:39:52;;;;;;;21.90;9.70;;;;;;;;;;6258334;28;20049;-56
2023/10/18 13:42:54;;;;;;;20.75;8.80;;;;;;;;;;6256450;28;20060;-56
2023/10/18 13:45:59;;;;;;;16.98;7.57;;;;;;;;;;6256379;28;20071;-57
2023/10/18 13:48:59;;;;;;;17.23;7.47;;;;;;;;;;6258559;28;20053;-56
2023/10/18 13:52:00;;;;;;;22.00;7.75;;;;;;;;;;6257063;28;20059;-55
2023/10/18 13:55:01;;;;;;;55.92;22.65;;;;;;;;;;6254361;28;20079;-55
2023/10/18 13:58:06;;;;;;;21.85;9.07;;;;;;;;;;6256293;28;20044;-55
2023/10/18 14:01:14;;;;;;;207.07;68.95;;;;;;;;;;6255566;28;20574;-56
2023/10/18 14:04:23;;;;;;;68.43;26.92;;;;;;;;;;6256042;28;20048;-57
2023/10/18 14:07:24;;;;;;;101.80;40.03;;;;;;;;;;6239541;28;20041;-55
2023/10/18 14:10:28;;;;;;;144.93;54.50;;;;;;;;;;6254328;28;20563;-56
2023/10/18 14:13:28;;;;;;;52.78;24.35;;;;;;;;;;6253270;28;20529;-55
2023/10/18 14:16:29;;;;;;;57.17;24.52;;;;;;;;;;6253292;28;20486;-55
2023/10/18 14:19:29;;;;;;;50.50;23.77;;;;;;;;;;6259640;28;20483;-55
2023/10/18 14:22:30;;;;;;;22.75;11.10;;;;;;;;;;6254749;28;20073;-54
2023/10/18 14:25:31;;;;;;;39.05;18.95;;;;;;;;;;6256487;28;20045;-58
2023/10/18 14:28:32;;;;;;;121.57;55.07;;;;;;;;;;6244397;28;20048;-57
2023/10/18 14:31:33;;;;;;;50.00;23.00;;;;;;;;;;6254070;28;20302;-55
2023/10/18 14:34:35;;;;;;;24.77;14.63;;;;;;;;;;6252028;28;20499;-57
2023/10/18 14:37:36;;;;;;;26.80;14.50;;;;;;;;;;6255286;28;20115;-60
2023/10/18 14:40:37;;;;;;;21.73;11.27;;;;;;;;;;6254109;28;20122;-55
2023/10/18 14:43:38;;;;;;;22.42;10.00;;;;;;;;;;6238623;28;20053;-54
2023/10/18 14:46:41;;;;;;;20.25;8.18;;;;;;;;;;6241044;28;20045;-58
2023/10/18 14:49:43;;;;;;;19.67;5.95;;;;;;;;;;6254514;28;20065;-51
2023/10/18 14:52:45;;;;;;;14.02;5.40;;;;;;;;;;6251859;28;20045;-55
2023/10/18 14:55:46;;;;;;;;;;;;;;;;;;6251617;28;20041;-59
2023/10/18 14:58:47;;;;;;;13.13;6.28;;;;;;;;;;6257443;28;20023;-57
2023/10/18 15:01:48;;;;;;;14.77;6.20;;;;;;;;;;6257442;28;20415;-59
2023/10/18 15:04:49;;;;;;;13.40;5.50;;;;;;;;;;6255373;28;20053;-59
2023/10/18 15:07:50;;;;;;;21.52;9.18;;;;;;;;;;6257636;28;20041;-59
2023/10/18 15:10:51;;;;;;;16.45;6.28;;;;;;;;;;6256021;28;20033;-62
2023/10/18 15:13:53;;;;;;;16.55;6.28;;;;;;;;;;6253333;28;20064;-60
2023/10/18 15:16:54;;;;;;;17.60;6.07;;;;;;;;;;6255315;28;20083;-60
2023/10/18 15:19:55;;;;;;;14.95;6.07;;;;;;;;;;6257285;28;20380;-61
2023/10/18 15:22:55;;;;;;;32.33;7.30;;;;;;;;;;6253642;28;20059;-60
2023/10/18 15:26:03;;;;;;;12.55;5.90;;;;;;;;;;6253949;28;20491;-61
2023/10/18 15:29:08;;;;;;;15.95;5.40;;;;;;;;;;6256256;28;20053;-61
2023/10/18 15:32:12;;;;;;;16.50;7.38;;;;;;;;;;6255787;28;20069;-60
2023/10/18 15:35:15;;;;;;;19.15;5.70;;;;;;;;;;6252865;28;20057;-60
2023/10/18 15:38:17;;;;;;;10.90;5.32;;;;;;;;;;6253527;28;20072;-54
2023/10/18 15:41:19;;;;;;;11.80;4.90;;;;;;;;;;6256261;28;20075;-58
2023/10/18 15:44:21;;;;;;;12.95;5.47;;;;;;;;;;6254429;28;20055;-60
2023/10/18 15:47:25;;;;;;;14.40;7.03;;;;;;;;;;6238518;28;20060;-59
2023/10/18 15:50:25;;;;;;;12.80;6.30;;;;;;;;;;6255216;28;20661;-60
2023/10/18 15:53:28;;;;;;;17.40;7.85;;;;;;;;;;6254243;28;20076;-56
2023/10/18 15:56:28;;;;;;;16.80;9.38;;;;;;;;;;6253257;28;20574;-61
2023/10/18 15:59:31;;;;;;;25.75;9.82;;;;;;;;;;6257085;28;20045;-61
2023/10/18 16:02:31;;;;;;;;;;;;;;;;;;6238482;28;20133;-59
2023/10/18 16:05:32;;;;;;;22.27;9.57;;;;;;;;;;6252903;28;19929;-54
2023/10/18 16:08:33;;;;;;;18.65;8.60;;;;;;;;;;6257981;28;20428;-60
2023/10/18 16:11:33;;;;;;;22.65;7.45;;;;;;;;;;6259605;28;20128;-60
2023/10/18 16:14:34;;;;;;;25.90;10.57;;;;;;;;;;6257028;28;20457;-61
2023/10/18 16:17:35;;;;;;;26.23;11.65;;;;;;;;;;6259284;28;20087;-59
2023/10/18 16:20:37;;;;;;;26.35;10.90;;;;;;;;;;6259905;28;20468;-55
2023/10/18 16:23:40;;;;;;;24.35;10.27;;;;;;;;;;6257883;28;20057;-61
2023/10/18 16:26:40;;;;;;;26.85;9.73;;;;;;;;;;6258853;28;20041;-62
2023/10/18 16:29:41;;;;;;;25.58;9.88;;;;;;;;;;6260489;28;20087;-59
2023/10/18 16:32:42;;;;;;;27.45;10.30;;;;;;;;;;6259485;28;20352;-63
2023/10/18 16:35:43;;;;;;;29.63;11.73;;;;;;;;;;6256007;28;20052;-62
2023/10/18 16:38:45;;;;;;;36.28;13.93;;;;;;;;;;6241567;28;20114;-56
2023/10/18 16:41:47;;;;;;;40.92;13.48;;;;;;;;;;6258556;28;20512;-56
2023/10/18 16:44:48;;;;;;;38.30;13.35;;;;;;;;;;6256198;28;20055;-57
2023/10/18 16:47:49;;;;;;;38.63;13.20;;;;;;;;;;6256888;28;20053;-59
2023/10/18 16:50:49;;;;;;;55.85;18.50;;;;;;;;;;6257837;28;20045;-55
2023/10/18 16:53:50;;;;;;;44.20;18.85;;;;;;;;;;6254314;28;20110;-60
2023/10/18 16:56:50;;;;;;;45.42;16.67;;;;;;;;;;6255797;28;20045;-61
2023/10/18 16:59:51;;;;;;;55.33;18.45;;;;;;;;;;6256040;28;20041;-59
2023/10/18 17:02:52;;;;;;;54.45;20.98;;;;;;;;;;6257307;28;20049;-55
2023/10/18 17:05:57;;;;;;;60.15;22.40;;;;;;;;;;6253807;28;20040;-58
2023/10/18 17:08:57;;;;;;;56.95;22.00;;;;;;;;;;6258273;28;20052;-59
2023/10/18 17:11:58;;;;;;;59.50;21.80;;;;;;;;;;6257664;28;20060;-58
2023/10/18 17:14:59;;;;;;;67.93;23.80;;;;;;;;;;6240729;28;20579;-56
2023/10/18 17:17:59;;;;;;;72.45;24.70;;;;;;;;;;6256797;28;20464;-62
2023/10/18 17:21:00;;;;;;;71.75;23.95;;;;;;;;;;6258037;28;20098;-60
2023/10/18 17:24:01;;;;;;;66.90;22.95;;;;;;;;;;6255498;28;20045;-59
2023/10/18 17:27:03;;;;;;;64.18;25.25;;;;;;;;;;6258253;28;20057;-58
2023/10/18 17:30:05;;;;;;;72.40;26.58;;;;;;;;;;6257226;28;20052;-57
2023/10/18 17:33:12;;;;;;;75.78;27.50;;;;;;;;;;6256018;28;20063;-60
2023/10/18 17:36:18;;;;;;;80.68;28.00;;;;;;;;;;6252621;28;20056;-55
2023/10/18 17:39:18;;;;;;;99.20;37.63;;;;;;;;;;6258184;28;20882;-55
2023/10/18 17:42:21;;;;;;;93.72;35.78;;;;;;;;;;6257404;28;20045;-59
2023/10/18 17:45:24;;;;;;;94.75;37.67;;;;;;;;;;6253929;28;20080;-55
2023/10/18 17:48:26;;;;;;;91.18;35.92;;;;;;;;;;6256511;28;20084;-50
2023/10/18 17:51:27;;;;;;;108.55;43.05;;;;;;;;;;6257886;28;20048;-60
2023/10/18 17:54:28;;;;;;;99.07;41.05;;;;;;;;;;6255334;28;20123;-61
2023/10/18 17:57:34;;;;;;;98.73;42.73;;;;;;;;;;6255416;28;20052;-60
2023/10/18 18:00:39;;;;;;;104.25;43.72;;;;;;;;;;6257522;28;20494;-58
2023/10/18 18:03:39;;;;;;;112.15;46.88;;;;;;;;;;6223925;28;20533;-58
2023/10/18 18:06:40;;;;;;;109.95;47.25;;;;;;;;;;6253312;28;20053;-52
2023/10/18 18:09:41;;;;;;;114.20;48.08;;;;;;;;;;6255728;28;20055;-56
2023/10/18 18:12:42;;;;;;;142.60;56.28;;;;;;;;;;6256526;28;20045;-52
2023/10/18 18:15:43;;;;;;;164.10;62.60;;;;;;;;;;6254314;28;20383;-59